Time;durP1;ratioP1;P1;durP2;ratioP2;P2;SDS_P1;SDS_P2;PMS_P1;PMS_P2;Temp;Humidity;BMP_temperature;BMP_pressure;BME280_temperature;BME280_humidity;BME280_pressure;Samples;Min_cycle;Max_cycle;Signal;HPM_P1;HPM_P2
2021/05/04 00:00:31;;;;;;;5.90;5.40;;;;;;;;;;5008932;28;20211;-43
2021/05/04 00:02:56;;;;;;;6.00;5.40;;;;;;;;;;5009954;28;20180;-44
2021/05/04 00:05:22;;;;;;;5.53;5.03;;;;;;;;;;5008523;28;20207;-44
2021/05/04 00:07:47;;;;;;;5.70;5.20;;;;;;;;;;5010165;28;20176;-43
2021/05/04 00:10:12;;;;;;;5.60;5.10;;;;;;;;;;5008363;28;20186;-43
2021/05/04 00:12:37;;;;;;;5.53;5.07;;;;;;;;;;5008226;28;20235;-44
2021/05/04 00:15:04;;;;;;;6.13;5.63;;;;;;;;;;5009015;28;20183;-44
2021/05/04 00:17:30;;;;;;;5.60;5.13;;;;;;;;;;5008469;28;20466;-44
2021/05/04 00:19:55;;;;;;;7.45;6.75;;;;;;;;;;5007790;28;20660;-44
2021/05/04 00:22:20;;;;;;;6.95;6.15;;;;;;;;;;5000164;28;20204;-44
2021/05/04 00:24:45;;;;;;;6.13;5.53;;;;;;;;;;5002859;28;20635;-43
2021/05/04 00:27:10;;;;;;;5.28;4.88;;;;;;;;;;5009237;28;20222;-44
2021/05/04 00:29:36;;;;;;;5.88;5.47;;;;;;;;;;5008537;28;20181;-44
2021/05/04 00:32:01;;;;;;;6.15;5.70;;;;;;;;;;5006070;28;20660;-44
2021/05/04 00:34:26;;;;;;;6.90;5.47;;;;;;;;;;5008307;28;20182;-44
2021/05/04 00:36:51;;;;;;;6.50;6.00;;;;;;;;;;5003627;28;20178;-44
2021/05/04 00:39:16;;;;;;;6.40;5.80;;;;;;;;;;5008880;28;20257;-45
2021/05/04 00:41:41;;;;;;;5.70;5.30;;;;;;;;;;5009019;28;20694;-44
2021/05/04 00:44:07;;;;;;;6.70;6.00;;;;;;;;;;5007303;28;20190;-44
2021/05/04 00:46:32;;;;;;;7.50;6.20;;;;;;;;;;5002224;28;20181;-43
2021/05/04 00:48:57;;;;;;;6.90;6.30;;;;;;;;;;5006150;28;20195;-44
2021/05/04 00:51:22;;;;;;;7.05;6.45;;;;;;;;;;5008530;28;20649;-44
2021/05/04 00:53:47;;;;;;;7.00;6.40;;;;;;;;;;5005058;28;20226;-44
2021/05/04 00:56:13;;;;;;;5.90;5.40;;;;;;;;;;5007654;28;20178;-44
2021/05/04 00:58:39;;;;;;;6.40;6.00;;;;;;;;;;5007752;28;20189;-44
2021/05/04 01:01:04;;;;;;;6.43;5.93;;;;;;;;;;5008866;28;20180;-44
2021/05/04 01:03:30;;;;;;;7.13;6.50;;;;;;;;;;5008664;28;20769;-46
2021/05/04 01:05:55;;;;;;;6.33;5.83;;;;;;;;;;5008528;28;20582;-44
2021/05/04 01:08:20;;;;;;;7.10;6.50;;;;;;;;;;5003775;28;20178;-43
2021/05/04 01:10:45;;;;;;;6.90;6.40;;;;;;;;;;5008567;28;20227;-44
2021/05/04 01:13:11;;;;;;;6.72;6.10;;;;;;;;;;5007315;28;20232;-44
2021/05/04 01:15:36;;;;;;;6.70;6.00;;;;;;;;;;5002056;28;20652;-44
2021/05/04 01:18:01;;;;;;;6.90;6.40;;;;;;;;;;5006122;28;20697;-44
2021/05/04 01:20:27;;;;;;;7.40;6.80;;;;;;;;;;4999812;28;20851;-44
2021/05/04 01:22:53;;;;;;;8.40;7.60;;;;;;;;;;5003601;28;20226;-44
2021/05/04 01:25:19;;;;;;;8.40;7.43;;;;;;;;;;5008075;28;20627;-44
2021/05/04 01:27:44;;;;;;;8.03;7.33;;;;;;;;;;5006592;28;20223;-44
2021/05/04 01:30:09;;;;;;;7.53;6.93;;;;;;;;;;5007031;28;20632;-44
2021/05/04 01:32:35;;;;;;;7.87;7.17;;;;;;;;;;5006401;28;20186;-44
2021/05/04 01:35:00;;;;;;;7.83;7.17;;;;;;;;;;5006428;28;20184;-44
2021/05/04 01:37:25;;;;;;;7.97;7.23;;;;;;;;;;5002810;28;20180;-44
2021/05/04 01:39:51;;;;;;;8.00;7.30;;;;;;;;;;5004568;28;20208;-44
2021/05/04 01:42:17;;;;;;;8.07;7.37;;;;;;;;;;5006785;28;20295;-44
2021/05/04 01:44:42;;;;;;;7.80;7.20;;;;;;;;;;5007135;28;20642;-44
2021/05/04 01:47:08;;;;;;;7.40;6.80;;;;;;;;;;5005684;28;20590;-44
2021/05/04 01:49:33;;;;;;;7.40;6.80;;;;;;;;;;5004036;28;20231;-44
2021/05/04 01:51:59;;;;;;;8.60;6.80;;;;;;;;;;5007401;28;20211;-44
2021/05/04 01:54:25;;;;;;;8.13;7.43;;;;;;;;;;5006431;28;20273;-44
2021/05/04 01:56:51;;;;;;;8.03;7.23;;;;;;;;;;5008394;28;20604;-44
2021/05/04 01:59:16;;;;;;;7.20;6.70;;;;;;;;;;4999554;28;20724;-44
2021/05/04 02:01:41;;;;;;;7.73;7.13;;;;;;;;;;5001515;28;20660;-44
2021/05/04 02:04:07;;;;;;;8.13;7.43;;;;;;;;;;5006687;28;20193;-44
2021/05/04 02:06:32;;;;;;;8.00;7.40;;;;;;;;;;5007857;28;20178;-44
2021/05/04 02:08:57;;;;;;;7.70;7.07;;;;;;;;;;5005542;28;20331;-44
2021/05/04 02:11:22;;;;;;;8.80;7.23;;;;;;;;;;5005834;28;20199;-44
2021/05/04 02:13:47;;;;;;;7.57;6.93;;;;;;;;;;5005880;28;20262;-43
2021/05/04 02:16:12;;;;;;;8.20;7.40;;;;;;;;;;5005463;28;20170;-44
2021/05/04 02:18:37;;;;;;;8.52;7.72;;;;;;;;;;4999788;28;20189;-45
2021/05/04 02:21:03;;;;;;;8.07;7.38;;;;;;;;;;5005265;28;20349;-44
2021/05/04 02:23:28;;;;;;;8.80;8.10;;;;;;;;;;5002349;28;20176;-44
2021/05/04 02:25:53;;;;;;;7.70;7.00;;;;;;;;;;5005397;28;20173;-43
2021/05/04 02:28:18;;;;;;;8.20;7.60;;;;;;;;;;5007722;28;20530;-44
2021/05/04 02:30:44;;;;;;;8.40;7.75;;;;;;;;;;5004799;28;20274;-44
2021/05/04 02:33:09;;;;;;;8.13;7.43;;;;;;;;;;5005565;28;20244;-44
2021/05/04 02:35:34;;;;;;;9.17;8.37;;;;;;;;;;5007408;28;20688;-43
2021/05/04 02:37:59;;;;;;;8.60;7.93;;;;;;;;;;5005261;28;20233;-44
2021/05/04 02:40:24;;;;;;;9.00;7.90;;;;;;;;;;5007535;28;20239;-44
2021/05/04 02:42:50;;;;;;;9.20;8.40;;;;;;;;;;5005818;28;20183;-44
2021/05/04 02:45:15;;;;;;;8.60;7.90;;;;;;;;;;5005966;28;20718;-44
2021/05/04 02:47:40;;;;;;;9.33;8.53;;;;;;;;;;5005685;28;20172;-45
2021/05/04 02:50:06;;;;;;;8.88;8.10;;;;;;;;;;5006910;28;20290;-45
2021/05/04 02:52:31;;;;;;;9.30;7.97;;;;;;;;;;5011465;28;20644;-44
2021/05/04 02:54:57;;;;;;;8.80;8.07;;;;;;;;;;5010158;28;20195;-44
2021/05/04 02:57:22;;;;;;;9.20;8.40;;;;;;;;;;5010159;28;20179;-44
2021/05/04 02:59:47;;;;;;;8.30;7.60;;;;;;;;;;5008416;28;20643;-45
2021/05/04 03:02:12;;;;;;;7.75;7.05;;;;;;;;;;5008318;28;20233;-44
2021/05/04 03:04:39;;;;;;;8.00;7.30;;;;;;;;;;5010698;28;20184;-44
2021/05/04 03:07:04;;;;;;;8.23;7.57;;;;;;;;;;5010155;28;20191;-45
2021/05/04 03:09:29;;;;;;;8.30;7.57;;;;;;;;;;5009962;28;20623;-45
2021/05/04 03:11:54;;;;;;;7.28;6.68;;;;;;;;;;5006243;28;20228;-45
2021/05/04 03:14:19;;;;;;;8.43;7.57;;;;;;;;;;5010835;28;20191;-42
2021/05/04 03:16:44;;;;;;;6.90;6.40;;;;;;;;;;5010596;28;20543;-44
2021/05/04 03:19:10;;;;;;;7.93;7.13;;;;;;;;;;5008409;28;20225;-45
2021/05/04 03:21:35;;;;;;;7.80;7.13;;;;;;;;;;5002421;28;20171;-44
2021/05/04 03:24:00;;;;;;;7.50;6.80;;;;;;;;;;5009753;28;20278;-44
2021/05/04 03:26:25;;;;;;;8.00;7.20;;;;;;;;;;5005795;28;20170;-46
2021/05/04 03:28:50;;;;;;;7.37;6.73;;;;;;;;;;5010472;28;20272;-44
2021/05/04 03:31:15;;;;;;;7.45;6.85;;;;;;;;;;5003282;28;20178;-42
2021/05/04 03:33:40;;;;;;;8.00;7.30;;;;;;;;;;5008681;28;20209;-43
2021/05/04 03:36:06;;;;;;;7.20;6.55;;;;;;;;;;5002420;28;20245;-45
2021/05/04 03:38:31;;;;;;;7.50;6.67;;;;;;;;;;5009039;28;20178;-43
2021/05/04 03:40:56;;;;;;;7.67;6.97;;;;;;;;;;4994616;28;20203;-43
2021/05/04 03:43:21;;;;;;;8.00;7.20;;;;;;;;;;5009527;28;20272;-44
2021/05/04 03:45:46;;;;;;;7.82;7.13;;;;;;;;;;5007487;28;20181;-45
2021/05/04 03:48:12;;;;;;;8.77;7.85;;;;;;;;;;5001427;28;20182;-46
2021/05/04 03:50:37;;;;;;;9.57;7.73;;;;;;;;;;4997108;28;20217;-44
2021/05/04 03:53:02;;;;;;;7.70;6.88;;;;;;;;;;5002717;28;20202;-44
2021/05/04 03:55:27;;;;;;;8.20;7.40;;;;;;;;;;5006802;28;20187;-44
2021/05/04 03:57:52;;;;;;;8.77;7.90;;;;;;;;;;5005157;28;20216;-43
2021/05/04 04:00:18;;;;;;;7.85;7.07;;;;;;;;;;5007247;28;20243;-43
2021/05/04 04:02:43;;;;;;;8.83;8.03;;;;;;;;;;5002538;28;20721;-44
2021/05/04 04:05:09;;;;;;;8.70;7.90;;;;;;;;;;5004489;28;20182;-44
2021/05/04 04:07:34;;;;;;;7.50;6.80;;;;;;;;;;5007064;28;20273;-43
2021/05/04 04:09:59;;;;;;;9.63;8.03;;;;;;;;;;5006196;28;20328;-43
2021/05/04 04:12:25;;;;;;;8.80;8.03;;;;;;;;;;5007401;28;20227;-43
2021/05/04 04:14:51;;;;;;;9.03;8.20;;;;;;;;;;5008764;28;20192;-43
2021/05/04 04:17:16;;;;;;;8.60;7.83;;;;;;;;;;5007000;28;20235;-43
2021/05/04 04:19:41;;;;;;;9.07;8.18;;;;;;;;;;5009422;28;20678;-44
2021/05/04 04:22:06;;;;;;;9.20;8.45;;;;;;;;;;5009496;28;20233;-44
2021/05/04 04:24:31;;;;;;;8.37;7.67;;;;;;;;;;5007340;28;20219;-44
2021/05/04 04:26:57;;;;;;;8.77;7.87;;;;;;;;;;5005354;28;20179;-45
2021/05/04 04:29:22;;;;;;;9.47;8.50;;;;;;;;;;5006996;28;20326;-44
2021/05/04 04:31:47;;;;;;;9.32;8.38;;;;;;;;;;5007455;28;20535;-48
2021/05/04 04:34:12;;;;;;;8.97;8.17;;;;;;;;;;5001992;28;20545;-44
2021/05/04 04:36:37;;;;;;;9.67;8.77;;;;;;;;;;5004358;28;20177;-44
2021/05/04 04:39:03;;;;;;;9.77;8.77;;;;;;;;;;5006501;28;20715;-44
2021/05/04 04:41:28;;;;;;;12.60;9.37;;;;;;;;;;5002200;28;20183;-44
2021/05/04 04:43:53;;;;;;;10.07;9.17;;;;;;;;;;5000679;28;20171;-43
2021/05/04 04:46:19;;;;;;;9.67;8.87;;;;;;;;;;4995812;28;20271;-43
2021/05/04 04:48:44;;;;;;;9.70;8.80;;;;;;;;;;5002110;28;20220;-43
2021/05/04 04:51:09;;;;;;;9.13;8.30;;;;;;;;;;5005995;28;20237;-43
2021/05/04 04:53:34;;;;;;;10.35;8.45;;;;;;;;;;4990643;28;20180;-44
2021/05/04 04:55:59;;;;;;;9.70;8.65;;;;;;;;;;5007139;28;20181;-46
2021/05/04 04:58:24;;;;;;;10.60;9.35;;;;;;;;;;5005994;28;20339;-44
2021/05/04 05:00:49;;;;;;;8.98;8.18;;;;;;;;;;5004063;28;20213;-44
2021/05/04 05:03:14;;;;;;;11.55;7.63;;;;;;;;;;5002510;28;20169;-45
2021/05/04 05:05:40;;;;;;;9.88;8.88;;;;;;;;;;5005421;28;20268;-43
2021/05/04 05:08:05;;;;;;;9.50;8.57;;;;;;;;;;5000193;28;20188;-43
2021/05/04 05:10:30;;;;;;;9.00;8.23;;;;;;;;;;4999671;28;20197;-44
2021/05/04 05:12:55;;;;;;;10.40;9.50;;;;;;;;;;5005797;28;20604;-43
2021/05/04 05:15:20;;;;;;;9.35;8.43;;;;;;;;;;5004724;28;20216;-44
2021/05/04 05:17:46;;;;;;;10.50;8.83;;;;;;;;;;5006039;28;20197;-43
2021/05/04 05:20:11;;;;;;;9.07;8.20;;;;;;;;;;5002853;28;20634;-43
2021/05/04 05:22:36;;;;;;;8.60;7.90;;;;;;;;;;4994170;28;20178;-43
2021/05/04 05:25:02;;;;;;;7.73;7.13;;;;;;;;;;4987348;28;20170;-43
2021/05/04 05:27:33;;;;;;;9.30;8.53;;;;;;;;;;4994242;28;20177;-44
2021/05/04 05:29:58;;;;;;;9.07;8.17;;;;;;;;;;4979258;28;20586;-43
2021/05/04 05:32:23;;;;;;;8.30;7.60;;;;;;;;;;5001364;28;20964;-43
2021/05/04 05:34:48;;;;;;;8.60;7.70;;;;;;;;;;5003993;28;20184;-45
2021/05/04 05:37:13;;;;;;;8.70;7.90;;;;;;;;;;5000899;28;20177;-44
2021/05/04 05:39:42;;;;;;;9.23;8.33;;;;;;;;;;4998814;28;20345;-44
2021/05/04 05:42:08;;;;;;;8.90;8.20;;;;;;;;;;4999060;28;20169;-43
2021/05/04 05:44:33;;;;;;;8.47;7.67;;;;;;;;;;4998513;28;20589;-45
2021/05/04 05:46:58;;;;;;;9.20;8.23;;;;;;;;;;5001479;28;20185;-44
2021/05/04 05:49:23;;;;;;;8.27;7.15;;;;;;;;;;4996071;28;20190;-44
2021/05/04 05:51:49;;;;;;;8.10;7.40;;;;;;;;;;4983920;28;20297;-44
2021/05/04 05:54:14;;;;;;;8.65;7.85;;;;;;;;;;4989117;28;20212;-44
2021/05/04 05:56:39;;;;;;;7.57;6.97;;;;;;;;;;5004436;28;20567;-43
2021/05/04 05:59:04;;;;;;;7.25;6.57;;;;;;;;;;5004966;28;20182;-44
2021/05/04 06:01:29;;;;;;;6.67;6.17;;;;;;;;;;5000006;28;20202;-43
2021/05/04 06:03:54;;;;;;;6.70;6.10;;;;;;;;;;4988346;28;20261;-43
2021/05/04 06:06:20;;;;;;;6.30;5.80;;;;;;;;;;4984500;28;20239;-44
2021/05/04 06:08:45;;;;;;;6.13;5.50;;;;;;;;;;4997735;28;20189;-44
2021/05/04 06:11:10;;;;;;;7.63;6.10;;;;;;;;;;5002292;28;20202;-44
2021/05/04 06:13:35;;;;;;;6.50;5.90;;;;;;;;;;4993192;28;20181;-44
2021/05/04 06:16:00;;;;;;;6.67;6.10;;;;;;;;;;4985148;28;20193;-44
2021/05/04 06:18:25;;;;;;;7.80;7.20;;;;;;;;;;4993529;28;20192;-44
2021/05/04 06:20:51;;;;;;;6.60;6.00;;;;;;;;;;4996536;28;20910;-44
2021/05/04 06:23:16;;;;;;;7.40;6.32;;;;;;;;;;4988124;28;20708;-44
2021/05/04 06:25:41;;;;;;;7.37;6.10;;;;;;;;;;4998257;28;20648;-43
2021/05/04 06:28:08;;;;;;;6.30;5.80;;;;;;;;;;4998097;28;20167;-43
2021/05/04 06:30:35;;;;;;;6.57;6.00;;;;;;;;;;5008233;28;20244;-43
2021/05/04 06:33:08;;;;;;;6.30;5.80;;;;;;;;;;5008793;28;20664;-43
2021/05/04 06:35:35;;;;;;;7.13;6.40;;;;;;;;;;5008903;28;20584;-43
2021/05/04 06:38:02;;;;;;;7.57;6.70;;;;;;;;;;5007172;28;20729;-44
2021/05/04 06:40:27;;;;;;;6.70;6.10;;;;;;;;;;5000213;28;20666;-44
2021/05/04 06:42:53;;;;;;;6.47;5.70;;;;;;;;;;4999628;28;20980;-45
2021/05/04 06:45:18;;;;;;;6.43;5.90;;;;;;;;;;4996280;28;20635;-45
2021/05/04 06:47:43;;;;;;;7.55;6.63;;;;;;;;;;4994686;28;20636;-44
2021/05/04 06:50:08;;;;;;;6.57;6.07;;;;;;;;;;4991292;28;20647;-44
2021/05/04 06:52:33;;;;;;;6.67;6.10;;;;;;;;;;4998154;28;20176;-44
2021/05/04 06:54:58;;;;;;;6.30;5.80;;;;;;;;;;4996640;28;20171;-45
2021/05/04 06:57:24;;;;;;;6.60;6.10;;;;;;;;;;5002603;28;20197;-45
2021/05/04 06:59:51;;;;;;;6.17;5.77;;;;;;;;;;5007775;28;20207;-44
2021/05/04 07:02:16;;;;;;;6.47;5.97;;;;;;;;;;5003320;28;20972;-44
2021/05/04 07:04:41;;;;;;;6.10;5.60;;;;;;;;;;4993731;28;20603;-45
2021/05/04 07:07:06;;;;;;;6.15;5.63;;;;;;;;;;4986042;28;21025;-44
2021/05/04 07:09:31;;;;;;;5.95;5.45;;;;;;;;;;4987745;28;20225;-44
2021/05/04 07:11:56;;;;;;;6.33;5.73;;;;;;;;;;5001813;28;20262;-45
2021/05/04 07:14:22;;;;;;;5.65;5.25;;;;;;;;;;5003931;28;20190;-44
2021/05/04 07:16:47;;;;;;;6.00;5.50;;;;;;;;;;5007420;28;20183;-44
2021/05/04 07:19:12;;;;;;;5.60;5.20;;;;;;;;;;5005519;28;20568;-44
2021/05/04 07:21:37;;;;;;;6.10;5.60;;;;;;;;;;5003901;28;20185;-44
2021/05/04 07:24:03;;;;;;;6.20;5.70;;;;;;;;;;5001883;28;20179;-45
2021/05/04 07:26:28;;;;;;;5.67;5.27;;;;;;;;;;5001781;28;20183;-44
2021/05/04 07:28:53;;;;;;;4.70;4.40;;;;;;;;;;5001951;28;20174;-44
2021/05/04 07:31:19;;;;;;;6.03;5.60;;;;;;;;;;5005098;28;20177;-44
2021/05/04 07:33:44;;;;;;;5.20;4.70;;;;;;;;;;5007471;28;20200;-44
2021/05/04 07:36:09;;;;;;;5.28;4.78;;;;;;;;;;5004240;28;20176;-44
2021/05/04 07:38:34;;;;;;;5.30;4.80;;;;;;;;;;5002579;28;20182;-43
2021/05/04 07:40:59;;;;;;;5.13;4.72;;;;;;;;;;5001590;28;20235;-43
2021/05/04 07:43:25;;;;;;;5.93;5.47;;;;;;;;;;5001908;28;20185;-44
2021/05/04 07:45:50;;;;;;;5.00;4.60;;;;;;;;;;5003143;28;20173;-44
2021/05/04 07:48:17;;;;;;;4.95;4.65;;;;;;;;;;5007328;28;20653;-44
2021/05/04 07:50:43;;;;;;;5.10;4.77;;;;;;;;;;5006574;28;20189;-44
2021/05/04 07:53:08;;;;;;;4.80;4.50;;;;;;;;;;5003137;28;20683;-43
2021/05/04 07:55:33;;;;;;;4.70;4.40;;;;;;;;;;5001383;28;20607;-44
2021/05/04 07:57:58;;;;;;;4.65;4.30;;;;;;;;;;5001382;28;20208;-44
2021/05/04 08:00:24;;;;;;;4.77;4.47;;;;;;;;;;5003049;28;20243;-44
2021/05/04 08:02:49;;;;;;;4.60;4.30;;;;;;;;;;5003095;28;20216;-44
2021/05/04 08:05:14;;;;;;;4.80;4.50;;;;;;;;;;5007149;28;20298;-44
2021/05/04 08:07:39;;;;;;;4.60;4.30;;;;;;;;;;5003391;28;20180;-44
2021/05/04 08:10:05;;;;;;;5.10;4.70;;;;;;;;;;5000894;28;21253;-45
2021/05/04 08:12:31;;;;;;;4.63;4.33;;;;;;;;;;5001615;28;20706;-44
2021/05/04 08:14:56;;;;;;;4.55;4.25;;;;;;;;;;5002654;28;21190;-44
2021/05/04 08:17:24;;;;;;;4.50;4.10;;;;;;;;;;5005620;28;20224;-45
2021/05/04 08:19:49;;;;;;;5.20;4.80;;;;;;;;;;5005859;28;20209;-44
2021/05/04 08:22:14;;;;;;;4.23;3.97;;;;;;;;;;5000963;28;20607;-45
2021/05/04 08:24:40;;;;;;;4.40;4.10;;;;;;;;;;5001434;28;20261;-45
2021/05/04 08:27:05;;;;;;;4.73;4.43;;;;;;;;;;5001137;28;20183;-45
2021/05/04 08:29:31;;;;;;;4.80;4.50;;;;;;;;;;5002806;28;20667;-45
2021/05/04 08:31:56;;;;;;;4.47;4.17;;;;;;;;;;5003944;28;20191;-45
2021/05/04 08:34:21;;;;;;;4.83;4.43;;;;;;;;;;5004408;28;20638;-45
2021/05/04 08:36:47;;;;;;;4.77;4.47;;;;;;;;;;5001740;28;20270;-44
2021/05/04 08:39:12;;;;;;;4.67;4.37;;;;;;;;;;5003878;28;20391;-43
2021/05/04 08:41:38;;;;;;;4.60;4.30;;;;;;;;;;5004114;28;20607;-43
2021/05/04 08:44:03;;;;;;;4.67;4.27;;;;;;;;;;5004094;28;20267;-45
2021/05/04 08:46:34;;;;;;;4.87;4.50;;;;;;;;;;5004014;28;20183;-45
2021/05/04 08:49:00;;;;;;;5.10;4.60;;;;;;;;;;5000449;28;20949;-46
2021/05/04 08:51:25;;;;;;;4.23;3.93;;;;;;;;;;4997578;28;20617;-43
2021/05/04 08:53:50;;;;;;;4.70;4.30;;;;;;;;;;5001284;28;20653;-43
2021/05/04 08:56:15;;;;;;;4.87;4.57;;;;;;;;;;5005253;28;20188;-44
2021/05/04 08:58:41;;;;;;;4.17;3.87;;;;;;;;;;5005388;28;20452;-45
2021/05/04 09:01:06;;;;;;;5.27;4.77;;;;;;;;;;5001100;28;20216;-44
2021/05/04 09:03:38;;;;;;;5.27;4.70;;;;;;;;;;4999781;28;20199;-44
2021/05/04 09:06:06;;;;;;;4.67;4.37;;;;;;;;;;5001771;28;20175;-44
2021/05/04 09:08:41;;;;;;;4.97;4.50;;;;;;;;;;5000339;28;20570;-45
2021/05/04 09:14:14;;;;;;;4.67;4.37;;;;;;;;;;5004332;28;20583;-44
2021/05/04 09:16:49;;;;;;;4.70;4.40;;;;;;;;;;5000267;28;20707;-45
2021/05/04 09:21:53;;;;;;;4.47;4.17;;;;;;;;;;5001783;28;20609;-47
2021/05/04 09:24:30;;;;;;;4.30;4.00;;;;;;;;;;5005087;28;20596;-45
2021/05/04 09:27:09;;;;;;;5.70;4.80;;;;;;;;;;4982107;28;20192;-46
2021/05/04 09:29:36;;;;;;;4.13;3.80;;;;;;;;;;4982335;28;20588;-46
2021/05/04 09:32:16;;;;;;;4.33;4.00;;;;;;;;;;4980518;28;20592;-45
2021/05/04 09:34:47;;;;;;;4.27;3.90;;;;;;;;;;4983758;28;20582;-45
2021/05/04 09:37:29;;;;;;;4.50;4.20;;;;;;;;;;5005219;28;20708;-45
2021/05/04 09:39:54;;;;;;;3.97;3.67;;;;;;;;;;5001337;28;20647;-47
2021/05/04 09:42:20;;;;;;;3.80;3.50;;;;;;;;;;4999882;28;20598;-45
2021/05/04 09:44:49;;;;;;;5.13;4.73;;;;;;;;;;5001242;28;20192;-45
2021/05/04 09:47:23;;;;;;;4.50;4.20;;;;;;;;;;5004180;28;20225;-45
2021/05/04 09:49:49;;;;;;;4.70;4.30;;;;;;;;;;5003318;28;20628;-44
2021/05/04 09:52:14;;;;;;;4.47;4.20;;;;;;;;;;5001266;28;21104;-44
2021/05/04 09:54:40;;;;;;;5.40;4.90;;;;;;;;;;5000896;28;20171;-44
2021/05/04 09:57:25;;;;;;;5.00;4.60;;;;;;;;;;4999355;28;20190;-44
2021/05/04 09:59:50;;;;;;;4.17;3.87;;;;;;;;;;4998839;28;20296;-44
2021/05/04 10:02:15;;;;;;;4.03;3.73;;;;;;;;;;5004416;28;20614;-45
2021/05/04 10:04:40;;;;;;;5.57;5.07;;;;;;;;;;5004446;28;20202;-45
2021/05/04 10:07:05;;;;;;;5.57;5.10;;;;;;;;;;4999121;28;20565;-44
2021/05/04 10:09:31;;;;;;;4.40;4.10;;;;;;;;;;4999021;28;20174;-44
2021/05/04 10:11:57;;;;;;;4.90;4.50;;;;;;;;;;4999055;28;20265;-44
2021/05/04 10:14:22;;;;;;;4.70;4.30;;;;;;;;;;5000897;28;20274;-44
2021/05/04 10:16:47;;;;;;;4.10;3.80;;;;;;;;;;5002917;28;20573;-44
2021/05/04 10:19:15;;;;;;;4.20;3.90;;;;;;;;;;5002292;28;20259;-44
2021/05/04 10:21:42;;;;;;;5.50;5.10;;;;;;;;;;5000702;28;20711;-44
2021/05/04 10:24:07;;;;;;;16.20;10.17;;;;;;;;;;4999042;28;21244;-44
2021/05/04 10:26:33;;;;;;;5.50;5.00;;;;;;;;;;4998802;28;20596;-45
2021/05/04 10:28:59;;;;;;;3.50;3.30;;;;;;;;;;5002573;28;20174;-44
2021/05/04 10:31:32;;;;;;;4.03;3.73;;;;;;;;;;5004178;28;20229;-44
2021/05/04 10:34:17;;;;;;;4.30;3.43;;;;;;;;;;4999041;28;20653;-45
2021/05/04 10:36:42;;;;;;;3.40;3.20;;;;;;;;;;5000062;28;20897;-45
2021/05/04 10:39:07;;;;;;;3.38;3.17;;;;;;;;;;4998636;28;20601;-45
2021/05/04 10:41:52;;;;;;;6.47;3.15;;;;;;;;;;5004011;28;20196;-45
2021/05/04 10:44:17;;;;;;;3.07;2.87;;;;;;;;;;5002634;28;20172;-46
2021/05/04 10:46:42;;;;;;;6.28;2.50;;;;;;;;;;5000332;28;20560;-45
2021/05/04 10:49:09;;;;;;;2.77;2.57;;;;;;;;;;4998363;28;20204;-45
2021/05/04 10:51:47;;;;;;;2.83;2.37;;;;;;;;;;4998703;28;20186;-46
2021/05/04 10:54:13;;;;;;;2.40;2.30;;;;;;;;;;5003737;28;20573;-45
2021/05/04 10:56:42;;;;;;;2.43;2.33;;;;;;;;;;5001824;28;20592;-45
2021/05/04 10:59:12;;;;;;;2.20;2.00;;;;;;;;;;4997839;28;20567;-45
2021/05/04 11:01:37;;;;;;;2.60;2.50;;;;;;;;;;4999329;28;20599;-45
2021/05/04 11:04:04;;;;;;;2.23;2.10;;;;;;;;;;5001858;28;20642;-45
2021/05/04 11:06:29;;;;;;;4.53;2.47;;;;;;;;;;5003442;28;20513;-45
2021/05/04 11:08:55;;;;;;;2.53;2.20;;;;;;;;;;5001855;28;20583;-45
2021/05/04 11:11:26;;;;;;;2.45;2.05;;;;;;;;;;4998218;28;20207;-44
2021/05/04 11:13:59;;;;;;;2.33;2.17;;;;;;;;;;5002858;28;20183;-44
2021/05/04 11:16:35;;;;;;;2.33;2.13;;;;;;;;;;5006623;28;20606;-44
2021/05/04 11:19:05;;;;;;;2.37;2.10;;;;;;;;;;5005768;28;20588;-44
2021/05/04 11:21:39;;;;;;;4.67;2.50;;;;;;;;;;5004201;28;21024;-44
2021/05/04 11:24:05;;;;;;;4.27;1.97;;;;;;;;;;5002428;28;20578;-45
2021/05/04 11:26:42;;;;;;;2.23;2.13;;;;;;;;;;5001437;28;20976;-45
2021/05/04 11:29:08;;;;;;;2.50;2.30;;;;;;;;;;5005776;28;20605;-45
2021/05/04 11:31:36;;;;;;;2.27;2.17;;;;;;;;;;5007819;28;21177;-45
2021/05/04 11:34:22;;;;;;;2.70;2.50;;;;;;;;;;5002264;28;20181;-46
2021/05/04 11:36:47;;;;;;;2.70;2.50;;;;;;;;;;5002995;28;20623;-45
2021/05/04 11:39:12;;;;;;;3.05;2.72;;;;;;;;;;5001767;28;20604;-45
2021/05/04 11:41:37;;;;;;;2.70;2.50;;;;;;;;;;5007188;28;20233;-45
2021/05/04 11:44:02;;;;;;;2.70;2.50;;;;;;;;;;5005548;28;20172;-45
2021/05/04 11:46:27;;;;;;;2.33;2.23;;;;;;;;;;5000860;28;20188;-45
2021/05/04 11:48:57;;;;;;;2.80;2.60;;;;;;;;;;5001842;28;20185;-46
2021/05/04 11:51:22;;;;;;;3.40;2.50;;;;;;;;;;5003523;28;20180;-45
2021/05/04 11:53:50;;;;;;;2.78;2.58;;;;;;;;;;5006841;28;20606;-45
2021/05/04 11:56:16;;;;;;;3.03;2.83;;;;;;;;;;5000521;28;20179;-45
2021/05/04 11:58:41;;;;;;;2.73;2.53;;;;;;;;;;5003167;28;20657;-46
2021/05/04 12:01:07;;;;;;;2.90;2.53;;;;;;;;;;5001711;28;20293;-46
2021/05/04 12:03:33;;;;;;;2.70;2.50;;;;;;;;;;5003538;28;20820;-46
2021/05/04 12:06:02;;;;;;;2.37;2.23;;;;;;;;;;5004624;28;20677;-45
2021/05/04 12:08:27;;;;;;;2.60;2.40;;;;;;;;;;5006024;28;20194;-45
2021/05/04 12:10:53;;;;;;;2.40;2.20;;;;;;;;;;5000546;28;20619;-45
2021/05/04 12:13:19;;;;;;;3.20;2.93;;;;;;;;;;5002469;28;20271;-45
2021/05/04 12:15:45;;;;;;;2.87;2.67;;;;;;;;;;5003214;28;20195;-46
2021/05/04 12:18:13;;;;;;;2.97;2.73;;;;;;;;;;5004659;28;21164;-45
2021/05/04 12:20:39;;;;;;;2.93;2.73;;;;;;;;;;5006648;28;20638;-44
2021/05/04 12:23:06;;;;;;;2.67;2.47;;;;;;;;;;5002400;28;21099;-45
2021/05/04 12:25:41;;;;;;;2.87;2.60;;;;;;;;;;5000013;28;20699;-45
2021/05/04 12:28:07;;;;;;;2.90;2.60;;;;;;;;;;5000674;28;20595;-45
2021/05/04 12:30:33;;;;;;;2.83;2.63;;;;;;;;;;4998071;28;21337;-45
2021/05/04 12:32:58;;;;;;;3.00;2.80;;;;;;;;;;4996479;28;20600;-45
2021/05/04 12:35:37;;;;;;;4.30;3.07;;;;;;;;;;5001274;28;20233;-45
2021/05/04 12:38:28;;;;;;;6.10;3.30;;;;;;;;;;5003382;28;20269;-44
2021/05/04 12:41:06;;;;;;;3.00;2.80;;;;;;;;;;5004045;28;20646;-45
2021/05/04 12:43:32;;;;;;;5.90;3.30;;;;;;;;;;5000254;28;20629;-45
2021/05/04 12:45:58;;;;;;;2.77;2.57;;;;;;;;;;5002375;28;20632;-46
2021/05/04 12:48:23;;;;;;;4.60;3.15;;;;;;;;;;5005404;28;21215;-45
2021/05/04 12:50:57;;;;;;;3.53;3.20;;;;;;;;;;5004128;28;20260;-46
2021/05/04 12:53:33;;;;;;;3.60;3.30;;;;;;;;;;4997307;28;20608;-45
2021/05/04 12:55:59;;;;;;;3.40;3.20;;;;;;;;;;4999718;28;20708;-45
2021/05/04 12:58:24;;;;;;;3.87;3.47;;;;;;;;;;5004478;28;20708;-45
2021/05/04 13:01:05;;;;;;;3.80;3.60;;;;;;;;;;5002089;28;20930;-45
2021/05/04 13:03:43;;;;;;;3.77;3.47;;;;;;;;;;5004508;28;20724;-44
2021/05/04 13:06:12;;;;;;;3.00;2.80;;;;;;;;;;5003044;28;20601;-46
2021/05/04 13:08:51;;;;;;;4.03;3.37;;;;;;;;;;5000984;28;21157;-44
2021/05/04 13:11:18;;;;;;;3.50;3.30;;;;;;;;;;5000425;28;20626;-45
2021/05/04 13:13:55;;;;;;;3.47;3.17;;;;;;;;;;5001923;28;20630;-45
2021/05/04 13:30:10;;;;;;;6.53;3.23;;;;;;;;;;5003685;28;20604;-44
2021/05/04 13:32:38;;;;;;;3.73;3.43;;;;;;;;;;4999761;28;20709;-44
2021/05/04 13:35:07;;;;;;;3.50;3.27;;;;;;;;;;4997234;28;20621;-45
2021/05/04 13:37:46;;;;;;;3.17;2.97;;;;;;;;;;4998728;28;20633;-46
2021/05/04 13:40:27;;;;;;;3.20;3.00;;;;;;;;;;4988056;28;20656;-45
2021/05/04 13:48:30;;;;;;;4.10;3.50;;;;;;;;;;4980768;28;20578;-45
2021/05/04 13:50:56;;;;;;;4.30;3.90;;;;;;;;;;5000729;28;21376;-47
2021/05/04 13:53:21;;;;;;;5.17;3.30;;;;;;;;;;5004490;28;20256;-45
2021/05/04 13:55:46;;;;;;;3.30;3.10;;;;;;;;;;5003919;28;20196;-46
2021/05/04 13:58:13;;;;;;;5.23;3.60;;;;;;;;;;4998755;28;20192;-45
2021/05/04 14:03:13;;;;;;;3.83;3.23;;;;;;;;;;4996368;28;21013;-45
2021/05/04 14:08:30;;;;;;;3.97;2.93;;;;;;;;;;5006581;28;21174;-44
2021/05/04 14:17:49;;;;;;;2.70;2.50;;;;;;;;;;5001270;28;20970;-44
2021/05/04 14:27:15;;;;;;;2.87;2.67;;;;;;;;;;5003588;28;20959;-45
2021/05/04 14:29:40;;;;;;;3.15;2.80;;;;;;;;;;5004370;28;20576;-45
2021/05/04 14:32:05;;;;;;;3.33;2.63;;;;;;;;;;4999258;28;20185;-45
2021/05/04 14:34:33;;;;;;;3.40;3.20;;;;;;;;;;4998749;28;20187;-45
2021/05/04 14:37:03;;;;;;;4.00;2.80;;;;;;;;;;5000884;28;20211;-45
2021/05/04 14:39:47;;;;;;;2.90;2.00;;;;;;;;;;5003805;28;20624;-44
2021/05/04 14:48:05;;;;;;;5.00;1.40;;;;;;;;;;5005103;28;20614;-45
2021/05/04 14:56:23;;;;;;;1.53;1.43;;;;;;;;;;5006484;28;20602;-43
2021/05/04 14:59:42;;;;;;;1.53;1.43;;;;;;;;;;5004148;28;20596;-44
2021/05/04 15:01:45;;;;;;;3.23;1.60;;;;;;;;;;5008413;28;20989;-44
2021/05/04 15:04:10;;;;;;;1.50;1.40;;;;;;;;;;5007227;28;20609;-45
2021/05/04 15:06:36;;;;;;;1.73;1.53;;;;;;;;;;5007387;28;20674;-46
2021/05/04 15:09:05;;;;;;;1.67;1.30;;;;;;;;;;5004251;28;20550;-46
2021/05/04 15:11:31;;;;;;;1.70;1.60;;;;;;;;;;5006138;28;20784;-45
2021/05/04 15:13:58;;;;;;;1.57;1.47;;;;;;;;;;5000423;28;20653;-45
2021/05/04 15:16:33;;;;;;;3.23;1.40;;;;;;;;;;5003793;28;20610;-44
2021/05/04 15:21:47;;;;;;;2.10;1.73;;;;;;;;;;5007130;28;20666;-47
2021/05/04 15:24:13;;;;;;;1.60;1.50;;;;;;;;;;5002163;28;20616;-45
2021/05/04 15:26:38;;;;;;;4.97;1.70;;;;;;;;;;5004343;28;20604;-44
2021/05/04 15:29:04;;;;;;;2.00;1.30;;;;;;;;;;5002189;28;20269;-44
2021/05/04 15:31:37;;;;;;;1.40;1.30;;;;;;;;;;5006108;28;20192;-45
2021/05/04 15:34:05;;;;;;;1.20;1.10;;;;;;;;;;5001998;28;20645;-44
2021/05/04 15:36:32;;;;;;;1.50;1.40;;;;;;;;;;4997949;28;20692;-44
2021/05/04 15:38:58;;;;;;;1.03;1.03;;;;;;;;;;5001445;28;20630;-46